sensor_id;sensor_type;location;lat;lon;timestamp;P1;durP1;ratioP1;P2;durP2;ratioP2
66802;SDS011;53705;49.860;8.744;2023-03-01T00:01:53;17.73;;;8.23;;
66802;SDS011;53705;49.860;8.744;2023-03-01T00:04:19;15.32;;;7.43;;
66802;SDS011;53705;49.860;8.744;2023-03-01T00:06:46;17.25;;;7.78;;
66802;SDS011;53705;49.860;8.744;2023-03-01T00:09:13;14.88;;;7.47;;
66802;SDS011;53705;49.860;8.744;2023-03-01T00:14:08;18.15;;;7.88;;
66802;SDS011;53705;49.860;8.744;2023-03-01T00:16:35;17.80;;;7.93;;
66802;SDS011;53705;49.860;8.744;2023-03-01T00:19:03;14.30;;;7.13;;
66802;SDS011;53705;49.860;8.744;2023-03-01T00:21:30;14.00;;;7.60;;
66802;SDS011;53705;49.860;8.744;2023-03-01T00:23:57;16.83;;;7.32;;
66802;SDS011;53705;49.860;8.744;2023-03-01T00:26:24;16.20;;;7.45;;
66802;SDS011;53705;49.860;8.744;2023-03-01T00:28:53;15.18;;;7.80;;
66802;SDS011;53705;49.860;8.744;2023-03-01T00:31:21;16.60;;;7.43;;
66802;SDS011;53705;49.860;8.744;2023-03-01T00:33:51;17.58;;;8.05;;
66802;SDS011;53705;49.860;8.744;2023-03-01T00:36:19;18.58;;;8.00;;
66802;SDS011;53705;49.860;8.744;2023-03-01T00:38:45;17.73;;;8.20;;
66802;SDS011;53705;49.860;8.744;2023-03-01T00:41:13;16.52;;;6.55;;
66802;SDS011;53705;49.860;8.744;2023-03-01T00:43:41;17.85;;;8.80;;
66802;SDS011;53705;49.860;8.744;2023-03-01T00:46:10;18.30;;;7.35;;
66802;SDS011;53705;49.860;8.744;2023-03-01T00:48:37;14.50;;;7.70;;
66802;SDS011;53705;49.860;8.744;2023-03-01T00:51:05;19.30;;;8.35;;
66802;SDS011;53705;49.860;8.744;2023-03-01T00:53:32;18.50;;;8.73;;
66802;SDS011;53705;49.860;8.744;2023-03-01T00:55:59;20.35;;;8.63;;
66802;SDS011;53705;49.860;8.744;2023-03-01T00:58:26;19.77;;;8.32;;
66802;SDS011;53705;49.860;8.744;2023-03-01T01:00:53;15.93;;;7.75;;
66802;SDS011;53705;49.860;8.744;2023-03-01T01:03:21;19.20;;;7.88;;
66802;SDS011;53705;49.860;8.744;2023-03-01T01:05:49;18.67;;;8.80;;
66802;SDS011;53705;49.860;8.744;2023-03-01T01:08:17;18.85;;;7.95;;
66802;SDS011;53705;49.860;8.744;2023-03-01T01:10:43;19.02;;;9.13;;
66802;SDS011;53705;49.860;8.744;2023-03-01T01:13:11;19.80;;;8.02;;
66802;SDS011;53705;49.860;8.744;2023-03-01T01:15:38;18.50;;;8.38;;
66802;SDS011;53705;49.860;8.744;2023-03-01T01:18:04;17.40;;;7.72;;
66802;SDS011;53705;49.860;8.744;2023-03-01T01:20:34;21.77;;;8.68;;
66802;SDS011;53705;49.860;8.744;2023-03-01T01:23:02;19.88;;;9.88;;
66802;SDS011;53705;49.860;8.744;2023-03-01T01:25:28;18.63;;;8.40;;
66802;SDS011;53705;49.860;8.744;2023-03-01T01:27:55;18.52;;;8.25;;
66802;SDS011;53705;49.860;8.744;2023-03-01T01:30:22;20.40;;;8.50;;
66802;SDS011;53705;49.860;8.744;2023-03-01T01:32:50;18.52;;;8.65;;
66802;SDS011;53705;49.860;8.744;2023-03-01T01:35:17;18.02;;;8.27;;
66802;SDS011;53705;49.860;8.744;2023-03-01T01:37:45;19.25;;;8.23;;
66802;SDS011;53705;49.860;8.744;2023-03-01T01:40:12;19.23;;;9.50;;
66802;SDS011;53705;49.860;8.744;2023-03-01T01:42:39;20.80;;;9.48;;
66802;SDS011;53705;49.860;8.744;2023-03-01T01:47:59;19.83;;;7.95;;
66802;SDS011;53705;49.860;8.744;2023-03-01T01:50:28;18.70;;;8.85;;
66802;SDS011;53705;49.860;8.744;2023-03-01T01:53:05;21.15;;;9.98;;
66802;SDS011;53705;49.860;8.744;2023-03-01T01:55:33;18.13;;;8.32;;
66802;SDS011;53705;49.860;8.744;2023-03-01T01:58:02;20.83;;;9.35;;
66802;SDS011;53705;49.860;8.744;2023-03-01T02:00:31;19.40;;;8.27;;
66802;SDS011;53705;49.860;8.744;2023-03-01T02:02:59;17.40;;;7.25;;
66802;SDS011;53705;49.860;8.744;2023-03-01T02:05:28;19.38;;;8.35;;
66802;SDS011;53705;49.860;8.744;2023-03-01T02:08:00;16.25;;;8.35;;
66802;SDS011;53705;49.860;8.744;2023-03-01T02:10:28;15.98;;;8.02;;
66802;SDS011;53705;49.860;8.744;2023-03-01T02:12:55;18.48;;;7.53;;
66802;SDS011;53705;49.860;8.744;2023-03-01T02:15:22;20.50;;;9.40;;
66802;SDS011;53705;49.860;8.744;2023-03-01T02:17:49;19.73;;;9.27;;
66802;SDS011;53705;49.860;8.744;2023-03-01T02:20:18;16.25;;;7.80;;
66802;SDS011;53705;49.860;8.744;2023-03-01T02:22:49;20.90;;;9.65;;
66802;SDS011;53705;49.860;8.744;2023-03-01T02:28:05;20.58;;;8.25;;
66802;SDS011;53705;49.860;8.744;2023-03-01T02:30:43;18.00;;;7.72;;
66802;SDS011;53705;49.860;8.744;2023-03-01T02:33:24;17.30;;;7.43;;
66802;SDS011;53705;49.860;8.744;2023-03-01T02:35:52;16.65;;;7.68;;
66802;SDS011;53705;49.860;8.744;2023-03-01T02:38:20;20.33;;;7.85;;
66802;SDS011;53705;49.860;8.744;2023-03-01T02:40:47;22.10;;;9.63;;
66802;SDS011;53705;49.860;8.744;2023-03-01T02:43:15;20.25;;;8.75;;
66802;SDS011;53705;49.860;8.744;2023-03-01T02:45:47;16.38;;;7.68;;
66802;SDS011;53705;49.860;8.744;2023-03-01T02:48:14;19.25;;;7.45;;
66802;SDS011;53705;49.860;8.744;2023-03-01T02:50:52;18.95;;;8.52;;
66802;SDS011;53705;49.860;8.744;2023-03-01T02:53:29;18.55;;;8.32;;
66802;SDS011;53705;49.860;8.744;2023-03-01T02:56:01;19.20;;;8.98;;
66802;SDS011;53705;49.860;8.744;2023-03-01T02:58:28;21.20;;;8.55;;
66802;SDS011;53705;49.860;8.744;2023-03-01T03:00:56;18.77;;;8.20;;
66802;SDS011;53705;49.860;8.744;2023-03-01T03:03:27;21.40;;;9.25;;
66802;SDS011;53705;49.860;8.744;2023-03-01T03:05:53;15.70;;;7.97;;
66802;SDS011;53705;49.860;8.744;2023-03-01T03:08:20;21.55;;;9.30;;
66802;SDS011;53705;49.860;8.744;2023-03-01T03:10:49;18.80;;;8.10;;
66802;SDS011;53705;49.860;8.744;2023-03-01T03:13:17;20.80;;;8.05;;
66802;SDS011;53705;49.860;8.744;2023-03-01T03:15:44;19.95;;;9.38;;
66802;SDS011;53705;49.860;8.744;2023-03-01T03:18:13;20.45;;;9.05;;
66802;SDS011;53705;49.860;8.744;2023-03-01T03:20:42;19.70;;;8.82;;
66802;SDS011;53705;49.860;8.744;2023-03-01T03:23:10;20.13;;;8.90;;
66802;SDS011;53705;49.860;8.744;2023-03-01T03:25:37;18.80;;;8.50;;
66802;SDS011;53705;49.860;8.744;2023-03-01T03:28:04;19.42;;;8.45;;
66802;SDS011;53705;49.860;8.744;2023-03-01T03:30:35;17.00;;;8.75;;
66802;SDS011;53705;49.860;8.744;2023-03-01T03:33:04;22.58;;;8.70;;
66802;SDS011;53705;49.860;8.744;2023-03-01T03:35:34;19.23;;;8.38;;
66802;SDS011;53705;49.860;8.744;2023-03-01T03:38:08;18.52;;;8.50;;
66802;SDS011;53705;49.860;8.744;2023-03-01T03:40:41;21.80;;;8.70;;
66802;SDS011;53705;49.860;8.744;2023-03-01T03:43:10;18.75;;;8.85;;
66802;SDS011;53705;49.860;8.744;2023-03-01T03:45:38;21.95;;;9.43;;
66802;SDS011;53705;49.860;8.744;2023-03-01T03:48:05;19.52;;;9.40;;
66802;SDS011;53705;49.860;8.744;2023-03-01T03:50:34;19.42;;;7.47;;
66802;SDS011;53705;49.860;8.744;2023-03-01T03:53:02;20.17;;;8.25;;
66802;SDS011;53705;49.860;8.744;2023-03-01T03:55:31;19.88;;;10.00;;
66802;SDS011;53705;49.860;8.744;2023-03-01T04:00:32;24.08;;;8.70;;
66802;SDS011;53705;49.860;8.744;2023-03-01T04:02:59;20.90;;;8.52;;
66802;SDS011;53705;49.860;8.744;2023-03-01T04:05:26;22.42;;;10.00;;
66802;SDS011;53705;49.860;8.744;2023-03-01T04:10:33;17.35;;;8.70;;
66802;SDS011;53705;49.860;8.744;2023-03-01T04:13:01;20.40;;;9.73;;
66802;SDS011;53705;49.860;8.744;2023-03-01T04:15:28;21.25;;;8.48;;
66802;SDS011;53705;49.860;8.744;2023-03-01T04:17:55;20.20;;;7.40;;
66802;SDS011;53705;49.860;8.744;2023-03-01T04:20:22;21.90;;;8.18;;
66802;SDS011;53705;49.860;8.744;2023-03-01T04:22:51;22.00;;;9.50;;
66802;SDS011;53705;49.860;8.744;2023-03-01T04:25:19;22.27;;;9.15;;
66802;SDS011;53705;49.860;8.744;2023-03-01T04:27:50;22.00;;;9.32;;
66802;SDS011;53705;49.860;8.744;2023-03-01T04:30:17;22.17;;;10.23;;
66802;SDS011;53705;49.860;8.744;2023-03-01T04:32:43;21.13;;;9.30;;
66802;SDS011;53705;49.860;8.744;2023-03-01T04:35:10;19.60;;;8.98;;
66802;SDS011;53705;49.860;8.744;2023-03-01T04:37:37;21.13;;;9.88;;
66802;SDS011;53705;49.860;8.744;2023-03-01T04:40:04;21.85;;;9.45;;
66802;SDS011;53705;49.860;8.744;2023-03-01T04:42:42;21.35;;;9.68;;
66802;SDS011;53705;49.860;8.744;2023-03-01T04:45:09;21.95;;;9.23;;
66802;SDS011;53705;49.860;8.744;2023-03-01T04:47:38;22.90;;;9.55;;
66802;SDS011;53705;49.860;8.744;2023-03-01T04:50:06;21.80;;;10.05;;
66802;SDS011;53705;49.860;8.744;2023-03-01T04:52:33;21.95;;;9.32;;
66802;SDS011;53705;49.860;8.744;2023-03-01T04:55:00;21.67;;;8.80;;
66802;SDS011;53705;49.860;8.744;2023-03-01T04:57:28;20.05;;;9.38;;
66802;SDS011;53705;49.860;8.744;2023-03-01T04:59:56;23.23;;;10.65;;
66802;SDS011;53705;49.860;8.744;2023-03-01T05:02:23;23.85;;;10.40;;
66802;SDS011;53705;49.860;8.744;2023-03-01T05:04:50;21.67;;;10.00;;
66802;SDS011;53705;49.860;8.744;2023-03-01T05:07:16;24.20;;;10.88;;
66802;SDS011;53705;49.860;8.744;2023-03-01T05:09:45;22.10;;;10.40;;
66802;SDS011;53705;49.860;8.744;2023-03-01T05:12:12;19.52;;;9.23;;
66802;SDS011;53705;49.860;8.744;2023-03-01T05:14:38;21.38;;;10.52;;
66802;SDS011;53705;49.860;8.744;2023-03-01T05:17:07;22.25;;;9.82;;
66802;SDS011;53705;49.860;8.744;2023-03-01T05:19:34;21.02;;;9.07;;
66802;SDS011;53705;49.860;8.744;2023-03-01T05:22:01;21.30;;;10.77;;
66802;SDS011;53705;49.860;8.744;2023-03-01T05:26:55;26.00;;;10.77;;
66802;SDS011;53705;49.860;8.744;2023-03-01T05:29:22;21.00;;;9.95;;
66802;SDS011;53705;49.860;8.744;2023-03-01T05:31:52;22.48;;;10.07;;
66802;SDS011;53705;49.860;8.744;2023-03-01T05:36:50;24.35;;;10.30;;
66802;SDS011;53705;49.860;8.744;2023-03-01T05:39:18;26.08;;;9.75;;
66802;SDS011;53705;49.860;8.744;2023-03-01T05:41:47;22.60;;;10.65;;
66802;SDS011;53705;49.860;8.744;2023-03-01T05:44:14;23.55;;;10.05;;
66802;SDS011;53705;49.860;8.744;2023-03-01T05:46:41;22.63;;;10.25;;
66802;SDS011;53705;49.860;8.744;2023-03-01T05:49:07;22.95;;;10.07;;
66802;SDS011;53705;49.860;8.744;2023-03-01T05:51:35;24.25;;;11.02;;
66802;SDS011;53705;49.860;8.744;2023-03-01T05:54:02;23.65;;;9.73;;
66802;SDS011;53705;49.860;8.744;2023-03-01T05:56:32;23.38;;;10.30;;
66802;SDS011;53705;49.860;8.744;2023-03-01T05:58:59;25.65;;;10.88;;
66802;SDS011;53705;49.860;8.744;2023-03-01T06:01:26;27.70;;;11.38;;
66802;SDS011;53705;49.860;8.744;2023-03-01T06:03:52;23.00;;;10.02;;
66802;SDS011;53705;49.860;8.744;2023-03-01T06:06:19;25.17;;;11.15;;
66802;SDS011;53705;49.860;8.744;2023-03-01T06:08:47;25.05;;;11.15;;
66802;SDS011;53705;49.860;8.744;2023-03-01T06:11:14;27.15;;;11.30;;
66802;SDS011;53705;49.860;8.744;2023-03-01T06:13:41;26.50;;;11.05;;
66802;SDS011;53705;49.860;8.744;2023-03-01T06:16:08;25.73;;;11.65;;
66802;SDS011;53705;49.860;8.744;2023-03-01T06:18:35;26.85;;;10.95;;
66802;SDS011;53705;49.860;8.744;2023-03-01T06:21:02;26.02;;;10.75;;
66802;SDS011;53705;49.860;8.744;2023-03-01T06:25:57;24.38;;;11.18;;
66802;SDS011;53705;49.860;8.744;2023-03-01T06:28:24;25.50;;;12.20;;
66802;SDS011;53705;49.860;8.744;2023-03-01T06:30:51;24.30;;;10.65;;
66802;SDS011;53705;49.860;8.744;2023-03-01T06:33:18;20.92;;;9.35;;
66802;SDS011;53705;49.860;8.744;2023-03-01T06:35:47;24.73;;;10.93;;
66802;SDS011;53705;49.860;8.744;2023-03-01T06:38:13;25.25;;;10.05;;
66802;SDS011;53705;49.860;8.744;2023-03-01T06:40:42;27.17;;;11.60;;
66802;SDS011;53705;49.860;8.744;2023-03-01T06:43:10;28.40;;;13.65;;
66802;SDS011;53705;49.860;8.744;2023-03-01T06:45:38;25.00;;;10.50;;
66802;SDS011;53705;49.860;8.744;2023-03-01T06:48:04;24.95;;;10.40;;
66802;SDS011;53705;49.860;8.744;2023-03-01T06:50:32;21.27;;;9.73;;
66802;SDS011;53705;49.860;8.744;2023-03-01T06:53:00;26.23;;;10.82;;
66802;SDS011;53705;49.860;8.744;2023-03-01T06:55:26;22.92;;;11.23;;
66802;SDS011;53705;49.860;8.744;2023-03-01T06:57:54;22.98;;;9.95;;
66802;SDS011;53705;49.860;8.744;2023-03-01T07:00:23;21.35;;;10.35;;
66802;SDS011;53705;49.860;8.744;2023-03-01T07:02:50;19.08;;;9.45;;
66802;SDS011;53705;49.860;8.744;2023-03-01T07:05:17;22.52;;;10.55;;
66802;SDS011;53705;49.860;8.744;2023-03-01T07:10:11;20.65;;;10.18;;
66802;SDS011;53705;49.860;8.744;2023-03-01T07:12:38;23.52;;;10.82;;
66802;SDS011;53705;49.860;8.744;2023-03-01T07:15:07;26.48;;;12.80;;
66802;SDS011;53705;49.860;8.744;2023-03-01T07:17:36;26.77;;;12.70;;
66802;SDS011;53705;49.860;8.744;2023-03-01T07:20:03;25.00;;;11.38;;
66802;SDS011;53705;49.860;8.744;2023-03-01T07:22:31;28.98;;;11.32;;
66802;SDS011;53705;49.860;8.744;2023-03-01T07:27:32;22.73;;;10.90;;
66802;SDS011;53705;49.860;8.744;2023-03-01T07:29:58;24.70;;;11.85;;
66802;SDS011;53705;49.860;8.744;2023-03-01T07:32:25;24.60;;;11.98;;
66802;SDS011;53705;49.860;8.744;2023-03-01T07:34:53;22.42;;;10.20;;
66802;SDS011;53705;49.860;8.744;2023-03-01T07:37:20;24.23;;;11.73;;
66802;SDS011;53705;49.860;8.744;2023-03-01T07:39:47;25.55;;;10.98;;
66802;SDS011;53705;49.860;8.744;2023-03-01T07:42:13;23.42;;;10.35;;
66802;SDS011;53705;49.860;8.744;2023-03-01T07:44:40;23.33;;;10.23;;
66802;SDS011;53705;49.860;8.744;2023-03-01T07:47:06;24.85;;;9.80;;
66802;SDS011;53705;49.860;8.744;2023-03-01T07:49:33;21.02;;;10.15;;
66802;SDS011;53705;49.860;8.744;2023-03-01T07:52:02;25.60;;;10.60;;
66802;SDS011;53705;49.860;8.744;2023-03-01T07:54:28;22.90;;;10.52;;
66802;SDS011;53705;49.860;8.744;2023-03-01T07:56:56;23.08;;;10.25;;
66802;SDS011;53705;49.860;8.744;2023-03-01T07:59:22;18.95;;;9.13;;
66802;SDS011;53705;49.860;8.744;2023-03-01T08:01:54;24.30;;;11.75;;
66802;SDS011;53705;49.860;8.744;2023-03-01T08:04:20;23.98;;;9.75;;
66802;SDS011;53705;49.860;8.744;2023-03-01T08:06:48;20.48;;;10.57;;
66802;SDS011;53705;49.860;8.744;2023-03-01T08:09:16;22.42;;;10.15;;
66802;SDS011;53705;49.860;8.744;2023-03-01T08:11:43;21.95;;;9.57;;
66802;SDS011;53705;49.860;8.744;2023-03-01T08:14:09;19.63;;;8.35;;
66802;SDS011;53705;49.860;8.744;2023-03-01T08:16:36;24.13;;;10.65;;
66802;SDS011;53705;49.860;8.744;2023-03-01T08:19:04;22.00;;;9.23;;
66802;SDS011;53705;49.860;8.744;2023-03-01T08:21:31;23.38;;;10.52;;
66802;SDS011;53705;49.860;8.744;2023-03-01T08:24:00;19.90;;;8.55;;
66802;SDS011;53705;49.860;8.744;2023-03-01T08:26:28;21.30;;;10.07;;
66802;SDS011;53705;49.860;8.744;2023-03-01T08:28:55;20.77;;;9.95;;
66802;SDS011;53705;49.860;8.744;2023-03-01T08:31:23;27.70;;;9.27;;
66802;SDS011;53705;49.860;8.744;2023-03-01T08:33:51;22.77;;;10.27;;
66802;SDS011;53705;49.860;8.744;2023-03-01T08:36:21;20.25;;;9.45;;
66802;SDS011;53705;49.860;8.744;2023-03-01T08:38:48;19.52;;;9.57;;
66802;SDS011;53705;49.860;8.744;2023-03-01T08:41:15;20.95;;;9.98;;
66802;SDS011;53705;49.860;8.744;2023-03-01T08:43:43;26.67;;;9.95;;
66802;SDS011;53705;49.860;8.744;2023-03-01T08:46:10;23.67;;;10.00;;
66802;SDS011;53705;49.860;8.744;2023-03-01T08:48:37;22.88;;;10.23;;
66802;SDS011;53705;49.860;8.744;2023-03-01T08:51:07;19.60;;;10.13;;
66802;SDS011;53705;49.860;8.744;2023-03-01T08:53:34;22.77;;;9.65;;
66802;SDS011;53705;49.860;8.744;2023-03-01T08:56:01;18.73;;;10.23;;
66802;SDS011;53705;49.860;8.744;2023-03-01T08:58:29;20.88;;;10.18;;
66802;SDS011;53705;49.860;8.744;2023-03-01T09:00:58;22.83;;;9.73;;
66802;SDS011;53705;49.860;8.744;2023-03-01T09:03:25;23.25;;;10.43;;
66802;SDS011;53705;49.860;8.744;2023-03-01T09:05:52;20.70;;;10.05;;
66802;SDS011;53705;49.860;8.744;2023-03-01T09:08:21;22.50;;;9.80;;
66802;SDS011;53705;49.860;8.744;2023-03-01T09:10:49;21.10;;;10.82;;
66802;SDS011;53705;49.860;8.744;2023-03-01T09:13:16;25.77;;;10.15;;
66802;SDS011;53705;49.860;8.744;2023-03-01T09:15:43;19.52;;;9.65;;
66802;SDS011;53705;49.860;8.744;2023-03-01T09:18:13;21.15;;;9.65;;
66802;SDS011;53705;49.860;8.744;2023-03-01T09:20:40;20.73;;;9.88;;
66802;SDS011;53705;49.860;8.744;2023-03-01T09:23:07;23.88;;;10.10;;
66802;SDS011;53705;49.860;8.744;2023-03-01T09:25:34;22.15;;;9.73;;
66802;SDS011;53705;49.860;8.744;2023-03-01T09:28:00;23.48;;;10.07;;
66802;SDS011;53705;49.860;8.744;2023-03-01T09:30:27;23.25;;;10.88;;
66802;SDS011;53705;49.860;8.744;2023-03-01T09:32:55;23.92;;;10.70;;
66802;SDS011;53705;49.860;8.744;2023-03-01T09:35:24;23.08;;;10.32;;
66802;SDS011;53705;49.860;8.744;2023-03-01T09:37:51;21.17;;;10.23;;
66802;SDS011;53705;49.860;8.744;2023-03-01T09:40:18;24.60;;;11.57;;
66802;SDS011;53705;49.860;8.744;2023-03-01T09:42:51;18.60;;;9.98;;
66802;SDS011;53705;49.860;8.744;2023-03-01T09:45:23;20.45;;;9.45;;
66802;SDS011;53705;49.860;8.744;2023-03-01T09:47:52;23.73;;;10.45;;
66802;SDS011;53705;49.860;8.744;2023-03-01T09:50:21;25.23;;;10.80;;
66802;SDS011;53705;49.860;8.744;2023-03-01T09:52:50;21.42;;;10.82;;
66802;SDS011;53705;49.860;8.744;2023-03-01T09:55:23;20.30;;;10.60;;
66802;SDS011;53705;49.860;8.744;2023-03-01T09:57:53;22.77;;;11.90;;
66802;SDS011;53705;49.860;8.744;2023-03-01T10:00:25;24.25;;;10.82;;
66802;SDS011;53705;49.860;8.744;2023-03-01T10:03:02;22.80;;;11.43;;
66802;SDS011;53705;49.860;8.744;2023-03-01T10:05:35;20.88;;;10.35;;
66802;SDS011;53705;49.860;8.744;2023-03-01T10:08:19;21.88;;;11.18;;
66802;SDS011;53705;49.860;8.744;2023-03-01T10:10:54;22.25;;;10.25;;
66802;SDS011;53705;49.860;8.744;2023-03-01T10:13:22;23.52;;;10.73;;
66802;SDS011;53705;49.860;8.744;2023-03-01T10:15:52;26.80;;;12.18;;
66802;SDS011;53705;49.860;8.744;2023-03-01T10:18:23;25.13;;;11.27;;
66802;SDS011;53705;49.860;8.744;2023-03-01T10:20:53;27.15;;;11.27;;
66802;SDS011;53705;49.860;8.744;2023-03-01T10:23:23;23.02;;;11.68;;
66802;SDS011;53705;49.860;8.744;2023-03-01T10:25:54;24.90;;;10.80;;
66802;SDS011;53705;49.860;8.744;2023-03-01T10:28:29;23.38;;;11.27;;
66802;SDS011;53705;49.860;8.744;2023-03-01T10:30:57;23.95;;;11.43;;
66802;SDS011;53705;49.860;8.744;2023-03-01T10:33:25;21.83;;;10.60;;
66802;SDS011;53705;49.860;8.744;2023-03-01T10:35:53;22.60;;;11.50;;
66802;SDS011;53705;49.860;8.744;2023-03-01T10:38:20;24.77;;;12.10;;
66802;SDS011;53705;49.860;8.744;2023-03-01T10:40:52;22.90;;;10.65;;
66802;SDS011;53705;49.860;8.744;2023-03-01T10:43:22;22.83;;;10.45;;
66802;SDS011;53705;49.860;8.744;2023-03-01T10:45:50;22.85;;;10.55;;
66802;SDS011;53705;49.860;8.744;2023-03-01T10:48:17;22.85;;;11.57;;
66802;SDS011;53705;49.860;8.744;2023-03-01T10:50:46;22.48;;;11.00;;
66802;SDS011;53705;49.860;8.744;2023-03-01T10:53:22;23.60;;;10.85;;
66802;SDS011;53705;49.860;8.744;2023-03-01T10:56:03;26.58;;;12.27;;
66802;SDS011;53705;49.860;8.744;2023-03-01T10:58:31;24.92;;;11.13;;
66802;SDS011;53705;49.860;8.744;2023-03-01T11:01:00;22.45;;;10.80;;
66802;SDS011;53705;49.860;8.744;2023-03-01T11:03:28;21.67;;;10.05;;
66802;SDS011;53705;49.860;8.744;2023-03-01T11:06:00;22.10;;;11.60;;
66802;SDS011;53705;49.860;8.744;2023-03-01T11:08:33;19.38;;;9.57;;
66802;SDS011;53705;49.860;8.744;2023-03-01T11:11:06;19.75;;;10.55;;
66802;SDS011;53705;49.860;8.744;2023-03-01T11:13:52;19.80;;;8.98;;
66802;SDS011;53705;49.860;8.744;2023-03-01T11:16:27;19.35;;;9.68;;
66802;SDS011;53705;49.860;8.744;2023-03-01T11:18:56;21.20;;;9.55;;
66802;SDS011;53705;49.860;8.744;2023-03-01T11:21:24;24.35;;;10.13;;
66802;SDS011;53705;49.860;8.744;2023-03-01T11:23:51;21.27;;;9.80;;
66802;SDS011;53705;49.860;8.744;2023-03-01T11:26:20;20.40;;;10.55;;
66802;SDS011;53705;49.860;8.744;2023-03-01T11:28:48;17.45;;;9.48;;
66802;SDS011;53705;49.860;8.744;2023-03-01T11:31:17;20.65;;;9.98;;
66802;SDS011;53705;49.860;8.744;2023-03-01T11:33:46;21.58;;;10.20;;
66802;SDS011;53705;49.860;8.744;2023-03-01T11:36:16;19.55;;;9.73;;
66802;SDS011;53705;49.860;8.744;2023-03-01T11:38:45;18.92;;;10.25;;
66802;SDS011;53705;49.860;8.744;2023-03-01T11:41:13;16.88;;;9.07;;
66802;SDS011;53705;49.860;8.744;2023-03-01T11:43:47;20.20;;;8.85;;
66802;SDS011;53705;49.860;8.744;2023-03-01T11:49:19;20.20;;;8.45;;
66802;SDS011;53705;49.860;8.744;2023-03-01T11:52:13;18.30;;;9.85;;
66802;SDS011;53705;49.860;8.744;2023-03-01T11:54:49;20.02;;;9.32;;
66802;SDS011;53705;49.860;8.744;2023-03-01T11:57:23;17.55;;;9.07;;
66802;SDS011;53705;49.860;8.744;2023-03-01T12:00:13;14.48;;;7.72;;
66802;SDS011;53705;49.860;8.744;2023-03-01T12:06:00;16.10;;;9.18;;
66802;SDS011;53705;49.860;8.744;2023-03-01T12:08:33;14.30;;;8.05;;
66802;SDS011;53705;49.860;8.744;2023-03-01T12:11:03;18.88;;;9.68;;
66802;SDS011;53705;49.860;8.744;2023-03-01T12:13:44;14.68;;;8.48;;
66802;SDS011;53705;49.860;8.744;2023-03-01T12:16:31;16.20;;;9.35;;
66802;SDS011;53705;49.860;8.744;2023-03-01T12:19:12;13.02;;;7.05;;
66802;SDS011;53705;49.860;8.744;2023-03-01T12:21:49;15.93;;;7.40;;
66802;SDS011;53705;49.860;8.744;2023-03-01T12:27:18;14.70;;;9.05;;
66802;SDS011;53705;49.860;8.744;2023-03-01T12:29:52;22.13;;;9.43;;
66802;SDS011;53705;49.860;8.744;2023-03-01T12:32:25;16.70;;;8.95;;
66802;SDS011;53705;49.860;8.744;2023-03-01T12:35:05;18.02;;;9.93;;
66802;SDS011;53705;49.860;8.744;2023-03-01T12:37:42;19.95;;;9.15;;
66802;SDS011;53705;49.860;8.744;2023-03-01T12:40:22;17.58;;;8.15;;
66802;SDS011;53705;49.860;8.744;2023-03-01T12:42:58;18.35;;;9.23;;
66802;SDS011;53705;49.860;8.744;2023-03-01T12:45:34;20.92;;;9.68;;
66802;SDS011;53705;49.860;8.744;2023-03-01T12:48:17;17.95;;;8.60;;
66802;SDS011;53705;49.860;8.744;2023-03-01T12:50:51;22.63;;;11.32;;
66802;SDS011;53705;49.860;8.744;2023-03-01T12:53:21;18.38;;;9.82;;
66802;SDS011;53705;49.860;8.744;2023-03-01T12:55:50;25.42;;;11.40;;
66802;SDS011;53705;49.860;8.744;2023-03-01T12:58:20;21.45;;;10.57;;
66802;SDS011;53705;49.860;8.744;2023-03-01T13:00:53;22.60;;;10.82;;
66802;SDS011;53705;49.860;8.744;2023-03-01T13:03:31;21.83;;;11.05;;
66802;SDS011;53705;49.860;8.744;2023-03-01T13:06:07;17.92;;;9.43;;
66802;SDS011;53705;49.860;8.744;2023-03-01T13:08:36;15.50;;;8.43;;
66802;SDS011;53705;49.860;8.744;2023-03-01T13:11:11;14.05;;;8.38;;
66802;SDS011;53705;49.860;8.744;2023-03-01T13:13:42;13.77;;;8.07;;
66802;SDS011;53705;49.860;8.744;2023-03-01T13:18:50;14.55;;;7.20;;
66802;SDS011;53705;49.860;8.744;2023-03-01T13:21:32;14.40;;;7.47;;
66802;SDS011;53705;49.860;8.744;2023-03-01T13:23:59;16.83;;;7.80;;
66802;SDS011;53705;49.860;8.744;2023-03-01T13:26:26;15.20;;;8.63;;
66802;SDS011;53705;49.860;8.744;2023-03-01T13:28:53;14.38;;;7.25;;
66802;SDS011;53705;49.860;8.744;2023-03-01T13:37:31;14.38;;;7.20;;
66802;SDS011;53705;49.860;8.744;2023-03-01T13:40:00;12.00;;;7.93;;
66802;SDS011;53705;49.860;8.744;2023-03-01T13:42:36;12.27;;;6.97;;
66802;SDS011;53705;49.860;8.744;2023-03-01T13:45:12;11.55;;;6.97;;
66802;SDS011;53705;49.860;8.744;2023-03-01T13:47:42;14.45;;;6.47;;
66802;SDS011;53705;49.860;8.744;2023-03-01T13:50:17;13.15;;;7.03;;
66802;SDS011;53705;49.860;8.744;2023-03-01T13:52:46;12.77;;;6.85;;
66802;SDS011;53705;49.860;8.744;2023-03-01T13:55:19;12.80;;;6.30;;
66802;SDS011;53705;49.860;8.744;2023-03-01T13:57:48;11.38;;;6.40;;
66802;SDS011;53705;49.860;8.744;2023-03-01T14:00:32;13.35;;;5.70;;
66802;SDS011;53705;49.860;8.744;2023-03-01T14:03:01;11.75;;;5.60;;
66802;SDS011;53705;49.860;8.744;2023-03-01T14:05:31;11.20;;;5.88;;
66802;SDS011;53705;49.860;8.744;2023-03-01T14:07:58;12.52;;;5.63;;
66802;SDS011;53705;49.860;8.744;2023-03-01T14:12:52;12.82;;;5.70;;
66802;SDS011;53705;49.860;8.744;2023-03-01T14:15:22;12.40;;;5.45;;
66802;SDS011;53705;49.860;8.744;2023-03-01T14:17:58;9.32;;;4.75;;
66802;SDS011;53705;49.860;8.744;2023-03-01T14:20:27;12.63;;;5.88;;
66802;SDS011;53705;49.860;8.744;2023-03-01T14:22:58;10.65;;;4.95;;
66802;SDS011;53705;49.860;8.744;2023-03-01T14:25:26;10.68;;;5.85;;
66802;SDS011;53705;49.860;8.744;2023-03-01T14:27:59;9.07;;;5.00;;
66802;SDS011;53705;49.860;8.744;2023-03-01T14:30:30;9.77;;;5.15;;
66802;SDS011;53705;49.860;8.744;2023-03-01T14:32:59;10.73;;;4.82;;
66802;SDS011;53705;49.860;8.744;2023-03-01T14:35:27;11.63;;;5.75;;
66802;SDS011;53705;49.860;8.744;2023-03-01T14:37:54;12.00;;;6.25;;
66802;SDS011;53705;49.860;8.744;2023-03-01T14:40:24;13.77;;;5.43;;
66802;SDS011;53705;49.860;8.744;2023-03-01T14:42:52;11.35;;;5.88;;
66802;SDS011;53705;49.860;8.744;2023-03-01T14:45:20;10.43;;;5.45;;
66802;SDS011;53705;49.860;8.744;2023-03-01T14:47:47;11.27;;;6.00;;
66802;SDS011;53705;49.860;8.744;2023-03-01T14:50:22;11.63;;;6.10;;
66802;SDS011;53705;49.860;8.744;2023-03-01T14:52:50;13.30;;;6.57;;
66802;SDS011;53705;49.860;8.744;2023-03-01T14:55:19;12.82;;;7.70;;
66802;SDS011;53705;49.860;8.744;2023-03-01T14:57:49;12.82;;;7.45;;
66802;SDS011;53705;49.860;8.744;2023-03-01T15:00:18;13.82;;;7.22;;
66802;SDS011;53705;49.860;8.744;2023-03-01T15:02:47;12.63;;;7.90;;
66802;SDS011;53705;49.860;8.744;2023-03-01T15:05:14;14.30;;;7.75;;
66802;SDS011;53705;49.860;8.744;2023-03-01T15:07:42;12.40;;;7.43;;
66802;SDS011;53705;49.860;8.744;2023-03-01T15:10:16;12.52;;;7.32;;
66802;SDS011;53705;49.860;8.744;2023-03-01T15:12:46;16.00;;;7.72;;
66802;SDS011;53705;49.860;8.744;2023-03-01T15:18:03;14.32;;;7.63;;
66802;SDS011;53705;49.860;8.744;2023-03-01T15:20:32;13.93;;;7.97;;
66802;SDS011;53705;49.860;8.744;2023-03-01T15:23:02;12.98;;;7.47;;
66802;SDS011;53705;49.860;8.744;2023-03-01T15:25:29;13.82;;;7.30;;
66802;SDS011;53705;49.860;8.744;2023-03-01T15:27:57;14.95;;;8.05;;
66802;SDS011;53705;49.860;8.744;2023-03-01T15:30:26;12.73;;;8.05;;
66802;SDS011;53705;49.860;8.744;2023-03-01T15:35:45;14.05;;;7.78;;